sensor_id;sensor_type;location;lat;lon;timestamp;pressure;altitude;pressure_sealevel;temperature;humidity
2785;BME280;57944;48.722;9.316;2023-05-19T00:01:10;98529.41;;;12.48;83.33
2785;BME280;57944;48.722;9.316;2023-05-19T00:03:52;98527.25;;;12.52;82.31
2785;BME280;57944;48.722;9.316;2023-05-19T00:06:25;98527.41;;;12.44;80.83
2785;BME280;57944;48.722;9.316;2023-05-19T00:08:59;98523.84;;;12.45;83.51
2785;BME280;57944;48.722;9.316;2023-05-19T00:11:32;98521.91;;;12.47;81.39
2785;BME280;57944;48.722;9.316;2023-05-19T00:14:05;98514.81;;;12.42;81.46
2785;BME280;57944;48.722;9.316;2023-05-19T00:16:38;98518.56;;;12.46;82.64
2785;BME280;57944;48.722;9.316;2023-05-19T00:19:11;98511.63;;;12.34;81.83
2785;BME280;57944;48.722;9.316;2023-05-19T00:21:43;98522.16;;;12.17;83.50
2785;BME280;57944;48.722;9.316;2023-05-19T00:24:14;98523.06;;;12.03;83.87
2785;BME280;57944;48.722;9.316;2023-05-19T00:26:45;98521.50;;;11.80;86.80
2785;BME280;57944;48.722;9.316;2023-05-19T00:29:16;98524.44;;;11.77;89.56
2785;BME280;57944;48.722;9.316;2023-05-19T00:31:47;98525.41;;;11.76;90.55
2785;BME280;57944;48.722;9.316;2023-05-19T00:34:21;98523.03;;;11.75;94.28
2785;BME280;57944;48.722;9.316;2023-05-19T00:36:51;98517.56;;;11.78;94.54
2785;BME280;57944;48.722;9.316;2023-05-19T00:39:22;98518.72;;;11.75;94.07
2785;BME280;57944;48.722;9.316;2023-05-19T00:41:53;98509.66;;;11.73;97.79
2785;BME280;57944;48.722;9.316;2023-05-19T00:44:23;98510.41;;;11.67;97.20
2785;BME280;57944;48.722;9.316;2023-05-19T00:46:54;98507.31;;;11.71;94.31
2785;BME280;57944;48.722;9.316;2023-05-19T00:49:29;98506.16;;;11.74;92.25
2785;BME280;57944;48.722;9.316;2023-05-19T00:52:01;98513.25;;;11.78;93.15
2785;BME280;57944;48.722;9.316;2023-05-19T00:54:33;98519.84;;;11.88;94.70
2785;BME280;57944;48.722;9.316;2023-05-19T00:57:04;98511.97;;;11.89;92.94
2785;BME280;57944;48.722;9.316;2023-05-19T00:59:35;98508.25;;;11.92;92.46
2785;BME280;57944;48.722;9.316;2023-05-19T01:02:05;98509.84;;;11.93;91.43
2785;BME280;57944;48.722;9.316;2023-05-19T01:04:39;98504.94;;;11.98;91.84
2785;BME280;57944;48.722;9.316;2023-05-19T01:07:11;98502.38;;;11.98;93.20
2785;BME280;57944;48.722;9.316;2023-05-19T01:09:42;98504.75;;;11.93;92.56
2785;BME280;57944;48.722;9.316;2023-05-19T01:12:12;98500.03;;;11.96;93.69
2785;BME280;57944;48.722;9.316;2023-05-19T01:14:43;98500.44;;;12.00;94.30
2785;BME280;57944;48.722;9.316;2023-05-19T01:17:20;98505.16;;;11.96;95.12
2785;BME280;57944;48.722;9.316;2023-05-19T01:20:05;98503.91;;;11.92;95.56
2785;BME280;57944;48.722;9.316;2023-05-19T01:22:53;98494.94;;;11.96;95.43
2785;BME280;57944;48.722;9.316;2023-05-19T01:25:51;98510.41;;;11.88;98.03
2785;BME280;57944;48.722;9.316;2023-05-19T01:28:52;98511.25;;;11.95;98.71
2785;BME280;57944;48.722;9.316;2023-05-19T01:31:31;98510.22;;;11.90;96.57
2785;BME280;57944;48.722;9.316;2023-05-19T01:34:03;98518.28;;;11.93;100.00
2785;BME280;57944;48.722;9.316;2023-05-19T01:36:35;98513.34;;;11.92;99.89
2785;BME280;57944;48.722;9.316;2023-05-19T01:39:07;98512.16;;;11.88;100.00
2785;BME280;57944;48.722;9.316;2023-05-19T01:41:41;98518.84;;;11.89;99.34
2785;BME280;57944;48.722;9.316;2023-05-19T01:44:13;98516.16;;;11.97;97.51
2785;BME280;57944;48.722;9.316;2023-05-19T01:46:47;98515.78;;;12.00;95.85
2785;BME280;57944;48.722;9.316;2023-05-19T01:49:18;98522.47;;;12.01;96.19
2785;BME280;57944;48.722;9.316;2023-05-19T01:51:49;98518.09;;;11.95;98.61
2785;BME280;57944;48.722;9.316;2023-05-19T01:54:21;98518.84;;;11.89;100.00
2785;BME280;57944;48.722;9.316;2023-05-19T01:56:59;98516.53;;;11.94;100.00
2785;BME280;57944;48.722;9.316;2023-05-19T01:59:40;98520.06;;;11.93;99.98
2785;BME280;57944;48.722;9.316;2023-05-19T02:02:21;98512.78;;;11.90;98.43
2785;BME280;57944;48.722;9.316;2023-05-19T02:04:58;98506.69;;;11.91;97.41
2785;BME280;57944;48.722;9.316;2023-05-19T02:07:42;98505.91;;;11.90;97.61
2785;BME280;57944;48.722;9.316;2023-05-19T02:10:20;98510.03;;;11.91;96.42
2785;BME280;57944;48.722;9.316;2023-05-19T02:12:53;98505.13;;;11.90;97.70
2785;BME280;57944;48.722;9.316;2023-05-19T02:15:31;98501.94;;;11.88;97.55
2785;BME280;57944;48.722;9.316;2023-05-19T02:18:09;98501.75;;;11.89;98.16
2785;BME280;57944;48.722;9.316;2023-05-19T02:20:41;98508.25;;;11.92;95.86
2785;BME280;57944;48.722;9.316;2023-05-19T02:23:12;98513.72;;;11.89;96.73
2785;BME280;57944;48.722;9.316;2023-05-19T02:25:42;98507.34;;;11.78;97.19
2785;BME280;57944;48.722;9.316;2023-05-19T02:28:13;98515.38;;;11.75;97.43
2785;BME280;57944;48.722;9.316;2023-05-19T02:30:44;98510.25;;;11.68;97.48
2785;BME280;57944;48.722;9.316;2023-05-19T02:33:17;98511.41;;;11.66;98.81
2785;BME280;57944;48.722;9.316;2023-05-19T02:35:51;98509.81;;;11.65;99.22
2785;BME280;57944;48.722;9.316;2023-05-19T02:38:23;98504.03;;;11.56;100.00
2785;BME280;57944;48.722;9.316;2023-05-19T02:40:53;98505.63;;;11.57;99.62
2785;BME280;57944;48.722;9.316;2023-05-19T02:43:24;98505.81;;;11.55;100.00
2785;BME280;57944;48.722;9.316;2023-05-19T02:45:57;98505.94;;;11.47;99.75
2785;BME280;57944;48.722;9.316;2023-05-19T02:48:30;98504.63;;;11.51;99.57
2785;BME280;57944;48.722;9.316;2023-05-19T02:51:00;98515.00;;;11.50;100.00
2785;BME280;57944;48.722;9.316;2023-05-19T02:53:31;98508.31;;;11.49;100.00
2785;BME280;57944;48.722;9.316;2023-05-19T02:56:03;98506.72;;;11.48;100.00
2785;BME280;57944;48.722;9.316;2023-05-19T02:58:34;98508.44;;;11.40;100.00
2785;BME280;57944;48.722;9.316;2023-05-19T03:01:05;98495.19;;;11.30;100.00
2785;BME280;57944;48.722;9.316;2023-05-19T03:03:38;98495.81;;;11.32;100.00
2785;BME280;57944;48.722;9.316;2023-05-19T03:06:09;98493.81;;;11.28;100.00
2785;BME280;57944;48.722;9.316;2023-05-19T03:08:40;98492.00;;;11.22;100.00
2785;BME280;57944;48.722;9.316;2023-05-19T03:11:10;98495.16;;;11.24;100.00
2785;BME280;57944;48.722;9.316;2023-05-19T03:13:42;98492.78;;;11.22;100.00
2785;BME280;57944;48.722;9.316;2023-05-19T03:16:12;98502.56;;;11.18;100.00
2785;BME280;57944;48.722;9.316;2023-05-19T03:18:46;98495.22;;;11.09;100.00
2785;BME280;57944;48.722;9.316;2023-05-19T03:21:16;98494.97;;;11.04;100.00
2785;BME280;57944;48.722;9.316;2023-05-19T03:23:47;98498.13;;;11.06;100.00
2785;BME280;57944;48.722;9.316;2023-05-19T03:26:18;98493.94;;;10.98;100.00
2785;BME280;57944;48.722;9.316;2023-05-19T03:28:49;98501.34;;;10.93;100.00
2785;BME280;57944;48.722;9.316;2023-05-19T03:31:20;98505.41;;;10.87;100.00
2785;BME280;57944;48.722;9.316;2023-05-19T03:33:54;98503.75;;;10.80;100.00
2785;BME280;57944;48.722;9.316;2023-05-19T03:36:25;98494.13;;;10.60;100.00
2785;BME280;57944;48.722;9.316;2023-05-19T03:39:00;98499.25;;;10.45;100.00
2785;BME280;57944;48.722;9.316;2023-05-19T03:41:30;98497.22;;;10.41;100.00
2785;BME280;57944;48.722;9.316;2023-05-19T03:44:02;98489.41;;;10.42;100.00
2785;BME280;57944;48.722;9.316;2023-05-19T03:46:33;98494.31;;;10.44;100.00
2785;BME280;57944;48.722;9.316;2023-05-19T03:49:21;98487.56;;;10.36;100.00
2785;BME280;57944;48.722;9.316;2023-05-19T03:52:11;98493.38;;;10.30;100.00
2785;BME280;57944;48.722;9.316;2023-05-19T03:55:06;98496.91;;;10.29;100.00
2785;BME280;57944;48.722;9.316;2023-05-19T03:57:37;98494.06;;;10.09;100.00
2785;BME280;57944;48.722;9.316;2023-05-19T04:00:10;98497.13;;;10.04;100.00
2785;BME280;57944;48.722;9.316;2023-05-19T04:02:40;98494.34;;;10.14;100.00
2785;BME280;57944;48.722;9.316;2023-05-19T04:05:14;98502.06;;;10.06;100.00
2785;BME280;57944;48.722;9.316;2023-05-19T04:07:45;98497.31;;;10.03;100.00
2785;BME280;57944;48.722;9.316;2023-05-19T04:10:17;98504.50;;;9.99;100.00
2785;BME280;57944;48.722;9.316;2023-05-19T04:12:48;98511.91;;;10.09;100.00
2785;BME280;57944;48.722;9.316;2023-05-19T04:15:19;98504.59;;;10.21;100.00
2785;BME280;57944;48.722;9.316;2023-05-19T04:17:50;98511.81;;;10.32;100.00
2785;BME280;57944;48.722;9.316;2023-05-19T04:20:23;98511.22;;;10.45;100.00
2785;BME280;57944;48.722;9.316;2023-05-19T04:22:54;98509.44;;;10.45;100.00
2785;BME280;57944;48.722;9.316;2023-05-19T04:25:25;98502.69;;;10.38;100.00
2785;BME280;57944;48.722;9.316;2023-05-19T04:27:55;98499.72;;;10.34;100.00
2785;BME280;57944;48.722;9.316;2023-05-19T04:30:27;98512.50;;;10.56;100.00
2785;BME280;57944;48.722;9.316;2023-05-19T04:32:59;98510.81;;;10.63;100.00
2785;BME280;57944;48.722;9.316;2023-05-19T04:35:34;98510.00;;;10.77;100.00
2785;BME280;57944;48.722;9.316;2023-05-19T04:38:08;98514.31;;;10.77;100.00
2785;BME280;57944;48.722;9.316;2023-05-19T04:40:40;98526.16;;;10.84;100.00
2785;BME280;57944;48.722;9.316;2023-05-19T04:43:12;98519.47;;;10.83;100.00
2785;BME280;57944;48.722;9.316;2023-05-19T04:45:42;98516.81;;;10.91;100.00
2785;BME280;57944;48.722;9.316;2023-05-19T04:48:14;98520.97;;;10.78;100.00
2785;BME280;57944;48.722;9.316;2023-05-19T04:50:48;98516.69;;;10.78;100.00
2785;BME280;57944;48.722;9.316;2023-05-19T04:53:19;98526.72;;;10.65;100.00
2785;BME280;57944;48.722;9.316;2023-05-19T04:55:52;98521.50;;;10.88;100.00
2785;BME280;57944;48.722;9.316;2023-05-19T04:58:23;98520.59;;;10.95;100.00
2785;BME280;57944;48.722;9.316;2023-05-19T05:00:54;98527.00;;;10.91;100.00
2785;BME280;57944;48.722;9.316;2023-05-19T05:03:25;98524.78;;;11.25;100.00
2785;BME280;57944;48.722;9.316;2023-05-19T05:06:00;98527.13;;;11.48;100.00
2785;BME280;57944;48.722;9.316;2023-05-19T05:08:31;98531.47;;;11.97;100.00
2785;BME280;57944;48.722;9.316;2023-05-19T05:11:05;98524.25;;;12.42;99.56
2785;BME280;57944;48.722;9.316;2023-05-19T05:13:36;98530.19;;;13.10;93.69
2785;BME280;57944;48.722;9.316;2023-05-19T05:16:09;98525.91;;;13.51;88.18
2785;BME280;57944;48.722;9.316;2023-05-19T05:18:41;98523.59;;;14.34;80.87
2785;BME280;57944;48.722;9.316;2023-05-19T05:21:17;98526.44;;;14.78;76.51
2785;BME280;57944;48.722;9.316;2023-05-19T05:23:49;98523.81;;;14.91;74.74
2785;BME280;57944;48.722;9.316;2023-05-19T05:26:22;98516.78;;;14.73;73.33
2785;BME280;57944;48.722;9.316;2023-05-19T05:28:57;98518.19;;;15.01;72.95
2785;BME280;57944;48.722;9.316;2023-05-19T05:31:28;98521.28;;;15.66;69.27
2785;BME280;57944;48.722;9.316;2023-05-19T05:33:59;98523.00;;;16.52;63.58
2785;BME280;57944;48.722;9.316;2023-05-19T05:36:34;98523.63;;;17.38;57.81
2785;BME280;57944;48.722;9.316;2023-05-19T05:39:05;98518.25;;;18.22;53.70
2785;BME280;57944;48.722;9.316;2023-05-19T05:41:37;98520.00;;;18.74;51.75
2785;BME280;57944;48.722;9.316;2023-05-19T05:44:10;98523.47;;;19.25;50.40
2785;BME280;57944;48.722;9.316;2023-05-19T05:46:44;98525.75;;;18.24;51.16
2785;BME280;57944;48.722;9.316;2023-05-19T05:49:15;98525.13;;;18.45;52.18
2785;BME280;57944;48.722;9.316;2023-05-19T05:51:50;98528.06;;;19.06;50.14
2785;BME280;57944;48.722;9.316;2023-05-19T05:54:37;98524.47;;;19.24;49.38
2785;BME280;57944;48.722;9.316;2023-05-19T05:57:09;98521.19;;;19.12;49.60
2785;BME280;57944;48.722;9.316;2023-05-19T05:59:41;98530.22;;;18.81;50.30
2785;BME280;57944;48.722;9.316;2023-05-19T06:02:12;98525.56;;;18.14;50.58
2785;BME280;57944;48.722;9.316;2023-05-19T06:04:43;98527.69;;;17.58;52.48
2785;BME280;57944;48.722;9.316;2023-05-19T06:07:16;98521.88;;;17.86;52.00
2785;BME280;57944;48.722;9.316;2023-05-19T06:09:47;98527.38;;;17.90;51.86
2785;BME280;57944;48.722;9.316;2023-05-19T06:12:19;98518.63;;;17.79;52.09
2785;BME280;57944;48.722;9.316;2023-05-19T06:14:49;98521.59;;;17.52;53.96
2785;BME280;57944;48.722;9.316;2023-05-19T06:17:46;98514.78;;;18.17;51.18
2785;BME280;57944;48.722;9.316;2023-05-19T06:20:17;98515.78;;;17.57;53.00
2785;BME280;57944;48.722;9.316;2023-05-19T06:22:50;98519.03;;;18.23;50.54
2785;BME280;57944;48.722;9.316;2023-05-19T06:25:23;98512.72;;;18.19;50.83
2785;BME280;57944;48.722;9.316;2023-05-19T06:27:55;98512.69;;;18.42;50.54
2785;BME280;57944;48.722;9.316;2023-05-19T06:30:25;98511.78;;;18.48;49.63
2785;BME280;57944;48.722;9.316;2023-05-19T06:33:13;98511.88;;;18.01;50.97
2785;BME280;57944;48.722;9.316;2023-05-19T06:35:44;98513.22;;;17.69;51.17
2785;BME280;57944;48.722;9.316;2023-05-19T06:38:17;98512.44;;;17.33;53.02
2785;BME280;57944;48.722;9.316;2023-05-19T06:40:48;98515.88;;;16.85;54.63
2785;BME280;57944;48.722;9.316;2023-05-19T06:43:19;98519.50;;;16.28;57.44
2785;BME280;57944;48.722;9.316;2023-05-19T06:45:57;98511.78;;;16.28;58.33
2785;BME280;57944;48.722;9.316;2023-05-19T06:48:28;98522.41;;;15.77;62.27
2785;BME280;57944;48.722;9.316;2023-05-19T06:50:59;98509.94;;;15.99;59.53
2785;BME280;57944;48.722;9.316;2023-05-19T06:53:34;98512.19;;;16.81;57.00
2785;BME280;57944;48.722;9.316;2023-05-19T06:56:08;98513.06;;;17.16;54.89
2785;BME280;57944;48.722;9.316;2023-05-19T06:58:39;98516.75;;;17.20;55.64
2785;BME280;57944;48.722;9.316;2023-05-19T07:01:11;98513.88;;;17.76;54.36
2785;BME280;57944;48.722;9.316;2023-05-19T07:03:47;98514.00;;;17.69;55.00
2785;BME280;57944;48.722;9.316;2023-05-19T07:06:20;98515.56;;;17.58;53.89
2785;BME280;57944;48.722;9.316;2023-05-19T07:08:54;98516.34;;;17.47;55.87
2785;BME280;57944;48.722;9.316;2023-05-19T07:11:26;98514.03;;;17.04;54.86
2785;BME280;57944;48.722;9.316;2023-05-19T07:13:57;98511.78;;;17.07;54.23
2785;BME280;57944;48.722;9.316;2023-05-19T07:16:30;98519.50;;;16.28;57.47
2785;BME280;57944;48.722;9.316;2023-05-19T07:19:01;98512.41;;;15.62;62.29
2785;BME280;57944;48.722;9.316;2023-05-19T07:21:33;98520.72;;;15.89;61.83
2785;BME280;57944;48.722;9.316;2023-05-19T07:24:07;98516.34;;;16.45;57.86
2785;BME280;57944;48.722;9.316;2023-05-19T07:26:37;98512.22;;;16.92;57.05
2785;BME280;57944;48.722;9.316;2023-05-19T07:29:09;98505.69;;;16.78;57.49
2785;BME280;57944;48.722;9.316;2023-05-19T07:31:40;98508.59;;;16.82;56.74
2785;BME280;57944;48.722;9.316;2023-05-19T07:34:10;98506.66;;;16.47;58.88
2785;BME280;57944;48.722;9.316;2023-05-19T07:36:41;98503.41;;;16.51;58.79
2785;BME280;57944;48.722;9.316;2023-05-19T07:39:14;98499.75;;;16.59;57.86
2785;BME280;57944;48.722;9.316;2023-05-19T07:41:45;98496.22;;;15.36;62.86
2785;BME280;57944;48.722;9.316;2023-05-19T07:44:21;98504.03;;;15.48;64.26
2785;BME280;57944;48.722;9.316;2023-05-19T07:46:53;98502.13;;;15.44;65.08
2785;BME280;57944;48.722;9.316;2023-05-19T07:49:24;98498.22;;;15.84;62.44
2785;BME280;57944;48.722;9.316;2023-05-19T07:51:55;98505.50;;;16.06;61.61
2785;BME280;57944;48.722;9.316;2023-05-19T07:54:29;98506.78;;;16.15;60.93
2785;BME280;57944;48.722;9.316;2023-05-19T07:56:59;98509.06;;;15.86;63.50
2785;BME280;57944;48.722;9.316;2023-05-19T07:59:30;98500.22;;;16.01;62.09
2785;BME280;57944;48.722;9.316;2023-05-19T08:02:01;98501.59;;;16.22;59.74
2785;BME280;57944;48.722;9.316;2023-05-19T08:04:32;98499.31;;;16.62;58.00
2785;BME280;57944;48.722;9.316;2023-05-19T08:07:03;98504.00;;;16.84;56.41
2785;BME280;57944;48.722;9.316;2023-05-19T08:09:36;98500.84;;;17.24;55.83
2785;BME280;57944;48.722;9.316;2023-05-19T08:12:07;98499.09;;;17.36;57.33
2785;BME280;57944;48.722;9.316;2023-05-19T08:14:37;98490.56;;;17.71;55.75
2785;BME280;57944;48.722;9.316;2023-05-19T08:17:08;98488.91;;;17.88;53.47
2785;BME280;57944;48.722;9.316;2023-05-19T08:19:38;98499.25;;;18.28;52.94
2785;BME280;57944;48.722;9.316;2023-05-19T08:22:11;98498.03;;;18.60;50.42
2785;BME280;57944;48.722;9.316;2023-05-19T08:24:45;98493.44;;;18.33;50.63
2785;BME280;57944;48.722;9.316;2023-05-19T08:27:16;98485.53;;;17.64;52.91
2785;BME280;57944;48.722;9.316;2023-05-19T08:29:48;98482.63;;;17.72;51.88
2785;BME280;57944;48.722;9.316;2023-05-19T08:32:18;98479.91;;;17.43;53.13
2785;BME280;57944;48.722;9.316;2023-05-19T08:34:49;98476.34;;;17.45;52.85
2785;BME280;57944;48.722;9.316;2023-05-19T08:37:20;98475.97;;;18.12;51.90
2785;BME280;57944;48.722;9.316;2023-05-19T08:39:54;98480.38;;;17.64;51.87
2785;BME280;57944;48.722;9.316;2023-05-19T08:42:24;98477.09;;;17.22;53.63
2785;BME280;57944;48.722;9.316;2023-05-19T08:44:55;98470.50;;;18.08;52.29
2785;BME280;57944;48.722;9.316;2023-05-19T08:47:27;98470.94;;;18.05;50.88
2785;BME280;57944;48.722;9.316;2023-05-19T08:50:03;98469.25;;;18.68;51.16
2785;BME280;57944;48.722;9.316;2023-05-19T08:52:40;98478.69;;;18.74;49.17
2785;BME280;57944;48.722;9.316;2023-05-19T08:55:27;98478.91;;;18.03;51.66
2785;BME280;57944;48.722;9.316;2023-05-19T08:58:02;98479.59;;;18.39;51.30
2785;BME280;57944;48.722;9.316;2023-05-19T09:00:34;98473.91;;;18.25;50.25
2785;BME280;57944;48.722;9.316;2023-05-19T09:03:05;98467.69;;;18.09;52.09
2785;BME280;57944;48.722;9.316;2023-05-19T09:05:50;98467.09;;;18.48;49.66
2785;BME280;57944;48.722;9.316;2023-05-19T09:08:21;98473.19;;;18.42;50.84
2785;BME280;57944;48.722;9.316;2023-05-19T09:10:54;98472.09;;;17.85;50.74
2785;BME280;57944;48.722;9.316;2023-05-19T09:13:25;98464.94;;;18.28;51.00
2785;BME280;57944;48.722;9.316;2023-05-19T09:15:56;98462.25;;;18.23;49.65
2785;BME280;57944;48.722;9.316;2023-05-19T09:18:27;98467.53;;;18.16;50.39
2785;BME280;57944;48.722;9.316;2023-05-19T09:20:59;98466.75;;;18.56;50.87
2785;BME280;57944;48.722;9.316;2023-05-19T09:23:31;98464.22;;;18.44;49.17
2785;BME280;57944;48.722;9.316;2023-05-19T09:26:05;98466.81;;;17.69;50.98
2785;BME280;57944;48.722;9.316;2023-05-19T09:28:37;98465.25;;;17.56;52.93
2785;BME280;57944;48.722;9.316;2023-05-19T09:31:08;98467.81;;;17.32;52.23
2785;BME280;57944;48.722;9.316;2023-05-19T09:33:41;98477.00;;;17.40;52.60
2785;BME280;57944;48.722;9.316;2023-05-19T09:36:13;98465.88;;;17.04;53.02
2785;BME280;57944;48.722;9.316;2023-05-19T09:38:45;98465.72;;;16.57;54.86
2785;BME280;57944;48.722;9.316;2023-05-19T09:41:19;98465.09;;;16.92;55.55
2785;BME280;57944;48.722;9.316;2023-05-19T09:43:54;98454.94;;;17.20;54.48
2785;BME280;57944;48.722;9.316;2023-05-19T09:46:25;98462.47;;;17.34;53.37
2785;BME280;57944;48.722;9.316;2023-05-19T09:48:57;98458.44;;;17.50;53.32
2785;BME280;57944;48.722;9.316;2023-05-19T09:51:28;98458.88;;;17.82;51.69
2785;BME280;57944;48.722;9.316;2023-05-19T09:53:59;98454.47;;;17.24;52.88
2785;BME280;57944;48.722;9.316;2023-05-19T09:56:34;98455.28;;;17.36;53.39
2785;BME280;57944;48.722;9.316;2023-05-19T09:59:06;98452.69;;;17.12;52.72
2785;BME280;57944;48.722;9.316;2023-05-19T10:01:38;98444.47;;;16.80;54.70
2785;BME280;57944;48.722;9.316;2023-05-19T10:04:14;98447.16;;;16.55;54.82
2785;BME280;57944;48.722;9.316;2023-05-19T10:06:45;98444.69;;;16.60;56.33
2785;BME280;57944;48.722;9.316;2023-05-19T10:09:22;98451.69;;;17.13;53.85
2785;BME280;57944;48.722;9.316;2023-05-19T10:11:57;98442.91;;;16.30;55.32
2785;BME280;57944;48.722;9.316;2023-05-19T10:14:29;98455.25;;;16.40;55.91
2785;BME280;57944;48.722;9.316;2023-05-19T10:16:59;98448.44;;;16.46;57.14
2785;BME280;57944;48.722;9.316;2023-05-19T10:19:30;98453.78;;;16.93;54.70
2785;BME280;57944;48.722;9.316;2023-05-19T10:22:01;98448.50;;;16.88;54.12
2785;BME280;57944;48.722;9.316;2023-05-19T10:24:32;98447.91;;;17.39;53.91
2785;BME280;57944;48.722;9.316;2023-05-19T10:27:09;98452.50;;;18.13;50.90
2785;BME280;57944;48.722;9.316;2023-05-19T10:29:44;98455.53;;;18.79;49.13
2785;BME280;57944;48.722;9.316;2023-05-19T10:32:23;98448.34;;;18.81;48.22
2785;BME280;57944;48.722;9.316;2023-05-19T10:35:29;98463.09;;;18.40;47.87
2785;BME280;57944;48.722;9.316;2023-05-19T10:38:13;98457.63;;;17.61;50.66
2785;BME280;57944;48.722;9.316;2023-05-19T10:40:54;98446.72;;;18.06;50.53
2785;BME280;57944;48.722;9.316;2023-05-19T10:43:48;98452.16;;;17.81;50.04
2785;BME280;57944;48.722;9.316;2023-05-19T10:46:26;98453.50;;;17.25;50.93
2785;BME280;57944;48.722;9.316;2023-05-19T10:48:57;98446.50;;;16.90;53.32
2785;BME280;57944;48.722;9.316;2023-05-19T10:51:30;98444.75;;;17.14;53.10
2785;BME280;57944;48.722;9.316;2023-05-19T10:54:01;98443.59;;;17.10;52.70
2785;BME280;57944;48.722;9.316;2023-05-19T10:56:35;98440.59;;;16.71;54.44
2785;BME280;57944;48.722;9.316;2023-05-19T10:59:30;98440.38;;;17.14;53.96
2785;BME280;57944;48.722;9.316;2023-05-19T11:02:03;98437.75;;;17.97;51.61
2785;BME280;57944;48.722;9.316;2023-05-19T11:04:46;98441.25;;;18.31;50.60
2785;BME280;57944;48.722;9.316;2023-05-19T11:07:19;98445.31;;;18.56;48.88
2785;BME280;57944;48.722;9.316;2023-05-19T11:09:52;98440.06;;;18.50;48.78
2785;BME280;57944;48.722;9.316;2023-05-19T11:12:23;98443.59;;;18.33;49.52
2785;BME280;57944;48.722;9.316;2023-05-19T11:14:57;98438.75;;;18.07;50.23
2785;BME280;57944;48.722;9.316;2023-05-19T11:17:28;98439.97;;;18.17;50.08
2785;BME280;57944;48.722;9.316;2023-05-19T11:20:00;98437.69;;;17.80;50.28
2785;BME280;57944;48.722;9.316;2023-05-19T11:22:33;98435.69;;;17.11;51.86
2785;BME280;57944;48.722;9.316;2023-05-19T11:25:06;98437.81;;;17.50;51.71
2785;BME280;57944;48.722;9.316;2023-05-19T11:27:37;98436.81;;;17.39;51.96
2785;BME280;57944;48.722;9.316;2023-05-19T11:30:11;98436.00;;;17.62;51.58
2785;BME280;57944;48.722;9.316;2023-05-19T11:32:46;98431.19;;;17.89;50.83
2785;BME280;57944;48.722;9.316;2023-05-19T11:35:17;98439.66;;;18.30;50.09
2785;BME280;57944;48.722;9.316;2023-05-19T11:37:49;98438.75;;;18.07;50.13
2785;BME280;57944;48.722;9.316;2023-05-19T11:40:24;98443.50;;;18.27;49.28
2785;BME280;57944;48.722;9.316;2023-05-19T11:42:56;98437.09;;;18.30;49.18
2785;BME280;57944;48.722;9.316;2023-05-19T11:45:31;98444.66;;;18.48;48.29
2785;BME280;57944;48.722;9.316;2023-05-19T11:48:04;98438.69;;;18.31;48.65
2785;BME280;57944;48.722;9.316;2023-05-19T11:50:37;98439.00;;;17.71;50.40
2785;BME280;57944;48.722;9.316;2023-05-19T11:53:11;98434.78;;;17.64;51.40
2785;BME280;57944;48.722;9.316;2023-05-19T11:55:44;98425.91;;;17.84;51.22
2785;BME280;57944;48.722;9.316;2023-05-19T11:58:16;98426.75;;;18.01;50.95
2785;BME280;57944;48.722;9.316;2023-05-19T12:00:50;98422.41;;;18.30;50.89
2785;BME280;57944;48.722;9.316;2023-05-19T12:03:21;98428.50;;;18.41;49.07
2785;BME280;57944;48.722;9.316;2023-05-19T12:05:55;98428.97;;;18.38;49.67
2785;BME280;57944;48.722;9.316;2023-05-19T12:08:27;98412.22;;;18.24;49.76
2785;BME280;57944;48.722;9.316;2023-05-19T12:10:59;98426.38;;;17.81;50.45
2785;BME280;57944;48.722;9.316;2023-05-19T12:13:29;98428.19;;;18.09;50.69
2785;BME280;57944;48.722;9.316;2023-05-19T12:16:03;98418.31;;;18.18;49.61
2785;BME280;57944;48.722;9.316;2023-05-19T12:18:37;98419.59;;;18.03;49.95
2785;BME280;57944;48.722;9.316;2023-05-19T12:21:08;98417.69;;;18.27;49.91
2785;BME280;57944;48.722;9.316;2023-05-19T12:23:38;98425.41;;;18.39;50.06
2785;BME280;57944;48.722;9.316;2023-05-19T12:26:10;98426.03;;;18.46;49.17
2785;BME280;57944;48.722;9.316;2023-05-19T12:28:44;98432.09;;;17.59;50.74
2785;BME280;57944;48.722;9.316;2023-05-19T12:31:21;98430.97;;;17.43;51.37
2785;BME280;57944;48.722;9.316;2023-05-19T12:33:55;98430.16;;;17.55;51.62
2785;BME280;57944;48.722;9.316;2023-05-19T12:36:30;98430.25;;;17.95;51.32
2785;BME280;57944;48.722;9.316;2023-05-19T12:39:03;98422.28;;;17.97;50.00
2785;BME280;57944;48.722;9.316;2023-05-19T12:41:37;98426.31;;;18.04;50.39
2785;BME280;57944;48.722;9.316;2023-05-19T12:44:14;98426.78;;;18.59;49.18
2785;BME280;57944;48.722;9.316;2023-05-19T12:46:51;98436.06;;;19.61;47.76
2785;BME280;57944;48.722;9.316;2023-05-19T12:49:22;98434.84;;;19.85;45.97
2785;BME280;57944;48.722;9.316;2023-05-19T12:51:53;98437.69;;;20.06;45.79
2785;BME280;57944;48.722;9.316;2023-05-19T12:54:31;98440.72;;;19.59;45.84
2785;BME280;57944;48.722;9.316;2023-05-19T12:57:05;98433.59;;;18.65;47.95
2785;BME280;57944;48.722;9.316;2023-05-19T12:59:36;98427.22;;;18.39;49.28
2785;BME280;57944;48.722;9.316;2023-05-19T13:02:12;98431.41;;;18.28;49.26
2785;BME280;57944;48.722;9.316;2023-05-19T13:04:45;98426.28;;;18.45;49.33
2785;BME280;57944;48.722;9.316;2023-05-19T13:07:16;98428.47;;;18.82;48.93
2785;BME280;57944;48.722;9.316;2023-05-19T13:09:47;98429.50;;;18.69;48.44
2785;BME280;57944;48.722;9.316;2023-05-19T13:12:18;98414.53;;;18.83;47.69
2785;BME280;57944;48.722;9.316;2023-05-19T13:14:50;98419.06;;;18.75;48.53
2785;BME280;57944;48.722;9.316;2023-05-19T13:17:25;98410.97;;;18.26;49.21
2785;BME280;57944;48.722;9.316;2023-05-19T13:19:56;98422.69;;;18.63;49.12
2785;BME280;57944;48.722;9.316;2023-05-19T13:22:27;98418.50;;;18.28;49.86
2785;BME280;57944;48.722;9.316;2023-05-19T13:24:58;98412.69;;;18.21;50.06
2785;BME280;57944;48.722;9.316;2023-05-19T13:27:29;98406.22;;;18.06;50.15
2785;BME280;57944;48.722;9.316;2023-05-19T13:30:01;98407.72;;;18.31;50.23
2785;BME280;57944;48.722;9.316;2023-05-19T13:32:34;98405.38;;;18.75;49.44
2785;BME280;57944;48.722;9.316;2023-05-19T13:35:07;98406.53;;;19.18;47.82
2785;BME280;57944;48.722;9.316;2023-05-19T13:37:40;98417.50;;;19.25;47.64
2785;BME280;57944;48.722;9.316;2023-05-19T13:40:12;98411.06;;;19.11;48.27
2785;BME280;57944;48.722;9.316;2023-05-19T13:42:44;98401.84;;;19.15;48.64